F/v_l'omerta — FHXG — position and weather

sailwx.info

Track history (hours):
 
Tides and Currents Weather Stations Pressure Air Temp Water Temp Dewpoint Dewpoint Depression Visibility Wind Speed Wind Dir Waves Ship Positions

F/v_l'omerta

Last reported at 2015-Jul-03 04:08 UTC. Time now 2015-Jul-03 17:21 UTC.
Position N 46°11' W 002°23'.

Length 18 m.

Type: Fishing. MMSI: 227903000.

Date/timePositionNaut miles runAvg speedWind from/ knotsBaromVisibWave heightAir tempDewpointWater temp
2015-Jul-03 04:08N 46°11' W 002°23'5 9.4
2015-Jul-03 03:33N 46°15' W 002°16'10 9.3
2015-Jul-03 02:32N 46°20' W 002°05'9 9.2
2015-Jul-03 01:33N 46°25' W 001°54'7 6.7
2015-Jul-03 00:34N 46°30' W 001°47'  
2015-Jun-26 12:33N 46°30' W 001°47'3 2.7
2015-Jun-26 11:33N 46°27' W 001°49'9 9.2
2015-Jun-26 10:33N 46°21' W 001°59'9 9.3
2015-Jun-26 09:33N 46°15' W 002°09'9 9.3
2015-Jun-26 08:32N 46°09' W 002°19'7 5.9
2015-Jun-26 07:19N 46°03' W 002°26'3 1.4
2015-Jun-26 05:26N 46°02' W 002°29'3 3.3
2015-Jun-26 04:32N 46°05' W 002°29'8 6.5
2015-Jun-26 03:19N 46°10' W 002°21'810.0
2015-Jun-26 02:33N 46°15' W 002°12'10 9.8
2015-Jun-26 01:33N 46°21' W 002°01'10 9.5
2015-Jun-26 00:33N 46°27' W 001°50'4 3.7
2015-Jun-25 23:33N 46°30' W 001°47'0 0.0
2015-Jun-25 22:33N 46°30' W 001°47'0 0.0
2015-Jun-25 21:33N 46°30' W 001°47'0 0.0
2015-Jun-25 20:33N 46°30' W 001°47'0 0.0
2015-Jun-25 19:33N 46°30' W 001°47'0 0.0
2015-Jun-25 18:33N 46°30' W 001°47'0 0.0
2015-Jun-25 17:33N 46°30' W 001°47'0 0.0
2015-Jun-25 16:33N 46°30' W 001°47'0 0.0
2015-Jun-25 15:33N 46°30' W 001°47'0 0.0
2015-Jun-25 14:33N 46°30' W 001°47'0 0.0
2015-Jun-25 13:33N 46°30' W 001°47'0 0.0
2015-Jun-25 12:33N 46°30' W 001°47'0 0.0
2015-Jun-25 11:33N 46°30' W 001°47'0 0.0
2015-Jun-25 10:33N 46°30' W 001°47'0 0.0
2015-Jun-25 09:33N 46°30' W 001°47'0 0.0
2015-Jun-25 08:33N 46°30' W 001°47'0 0.0
2015-Jun-25 07:33N 46°30' W 001°47'0 0.0
2015-Jun-25 06:33N 46°30' W 001°47'0 0.0
2015-Jun-25 05:33N 46°30' W 001°47'0 0.0
2015-Jun-25 04:33N 46°30' W 001°47'0 0.0
2015-Jun-25 03:33N 46°30' W 001°47'0 0.0
2015-Jun-25 02:33N 46°30' W 001°47'0 0.0
2015-Jun-25 01:33N 46°30' W 001°47'0 0.1
2015-Jun-25 00:33N 46°30' W 001°47'6 6.5
2015-Jun-24 23:33N 46°25' W 001°54'11 9.0
2015-Jun-24 22:18N 46°19' W 002°07'21 6.5
2015-Jun-24 19:07N 46°09' W 002°33'3 2.0
2015-Jun-24 17:33N 46°08' W 002°29'3 1.5
2015-Jun-24 15:32N 46°08' W 002°33'2 2.6
2015-Jun-24 14:33N 46°09' W 002°31'5 0.9
2015-Jun-24 09:17N 46°05' W 002°29'4 3.1
2015-Jun-24 08:08N 46°08' W 002°32'1 2.5
2015-Jun-24 07:33N 46°08' W 002°34'3 1.4
2015-Jun-24 05:27N 46°11' W 002°35'4 3.0
2015-Jun-24 04:18N 46°10' W 002°30'9 7.9
2015-Jun-24 03:13N 46°14' W 002°18'6 9.1
2015-Jun-24 02:33N 46°17' W 002°11'9 9.4
2015-Jun-24 01:33N 46°22' W 002°00'9 9.5
2015-Jun-24 00:33N 46°27' W 001°49'3 2.5
2015-Jun-23 23:33N 46°30' W 001°47'  
Track history (hours):
 
Tides and Currents Weather Stations Pressure Air Temp Water Temp Dewpoint Dewpoint Depression Visibility Wind Speed Wind Dir Waves Ship Positions

F/v_l'omerta

Last reported at 2015-Jul-03 04:08 UTC. Time now 2015-Jul-03 17:21 UTC.
Position N 46°11' W 002°23'.

Length 18 m.

Type: Fishing. MMSI: 227903000.

Date/timePositionNaut miles runAvg speedWind from/ knotsBaromVisibWave heightAir tempDewpointWater temp
2015-Jul-03 04:08N 46°11' W 002°23'5 9.4
2015-Jul-03 03:33N 46°15' W 002°16'10 9.3
2015-Jul-03 02:32N 46°20' W 002°05'9 9.2
2015-Jul-03 01:33N 46°25' W 001°54'7 6.7
2015-Jul-03 00:34N 46°30' W 001°47'  
2015-Jun-26 12:33N 46°30' W 001°47'3 2.7
2015-Jun-26 11:33N 46°27' W 001°49'9 9.2
2015-Jun-26 10:33N 46°21' W 001°59'9 9.3
2015-Jun-26 09:33N 46°15' W 002°09'9 9.3
2015-Jun-26 08:32N 46°09' W 002°19'7 5.9
2015-Jun-26 07:19N 46°03' W 002°26'3 1.4
2015-Jun-26 05:26N 46°02' W 002°29'3 3.3
2015-Jun-26 04:32N 46°05' W 002°29'8 6.5
2015-Jun-26 03:19N 46°10' W 002°21'810.0
2015-Jun-26 02:33N 46°15' W 002°12'10 9.8
2015-Jun-26 01:33N 46°21' W 002°01'10 9.5
2015-Jun-26 00:33N 46°27' W 001°50'4 3.7
2015-Jun-25 23:33N 46°30' W 001°47'0 0.0
2015-Jun-25 22:33N 46°30' W 001°47'0 0.0
2015-Jun-25 21:33N 46°30' W 001°47'0 0.0
2015-Jun-25 20:33N 46°30' W 001°47'0 0.0
2015-Jun-25 19:33N 46°30' W 001°47'0 0.0
2015-Jun-25 18:33N 46°30' W 001°47'0 0.0
2015-Jun-25 17:33N 46°30' W 001°47'0 0.0
2015-Jun-25 16:33N 46°30' W 001°47'0 0.0
2015-Jun-25 15:33N 46°30' W 001°47'0 0.0
2015-Jun-25 14:33N 46°30' W 001°47'0 0.0
2015-Jun-25 13:33N 46°30' W 001°47'0 0.0
2015-Jun-25 12:33N 46°30' W 001°47'0 0.0
2015-Jun-25 11:33N 46°30' W 001°47'0 0.0
2015-Jun-25 10:33N 46°30' W 001°47'0 0.0
2015-Jun-25 09:33N 46°30' W 001°47'0 0.0
2015-Jun-25 08:33N 46°30' W 001°47'0 0.0
2015-Jun-25 07:33N 46°30' W 001°47'0 0.0
2015-Jun-25 06:33N 46°30' W 001°47'0 0.0
2015-Jun-25 05:33N 46°30' W 001°47'0 0.0
2015-Jun-25 04:33N 46°30' W 001°47'0 0.0
2015-Jun-25 03:33N 46°30' W 001°47'0 0.0
2015-Jun-25 02:33N 46°30' W 001°47'0 0.0
2015-Jun-25 01:33N 46°30' W 001°47'0 0.1
2015-Jun-25 00:33N 46°30' W 001°47'6 6.5
2015-Jun-24 23:33N 46°25' W 001°54'11 9.0
2015-Jun-24 22:18N 46°19' W 002°07'21 6.5
2015-Jun-24 19:07N 46°09' W 002°33'3 2.0
2015-Jun-24 17:33N 46°08' W 002°29'3 1.5
2015-Jun-24 15:32N 46°08' W 002°33'2 2.6
2015-Jun-24 14:33N 46°09' W 002°31'5 0.9
2015-Jun-24 09:17N 46°05' W 002°29'4 3.1
2015-Jun-24 08:08N 46°08' W 002°32'1 2.5
2015-Jun-24 07:33N 46°08' W 002°34'3 1.4
2015-Jun-24 05:27N 46°11' W 002°35'4 3.0
2015-Jun-24 04:18N 46°10' W 002°30'9 7.9
2015-Jun-24 03:13N 46°14' W 002°18'6 9.1
2015-Jun-24 02:33N 46°17' W 002°11'9 9.4
2015-Jun-24 01:33N 46°22' W 002°00'9 9.5
2015-Jun-24 00:33N 46°27' W 001°49'3 2.5
2015-Jun-23 23:33N 46°30' W 001°47'  

Dump ship's entire track history